sensor_id;sensor_type;location;lat;lon;timestamp;P1;durP1;ratioP1;P2;durP2;ratioP2
49139;SDS011;34959;49.310;8.646;2023-04-25T00:00:46;3.92;;;0.95;;
49139;SDS011;34959;49.310;8.646;2023-04-25T00:03:11;0.77;;;0.40;;
49139;SDS011;34959;49.310;8.646;2023-04-25T00:05:37;1.27;;;0.50;;
49139;SDS011;34959;49.310;8.646;2023-04-25T00:08:03;3.40;;;0.55;;
49139;SDS011;34959;49.310;8.646;2023-04-25T00:10:29;1.52;;;0.50;;
49139;SDS011;34959;49.310;8.646;2023-04-25T00:12:54;3.42;;;0.52;;
49139;SDS011;34959;49.310;8.646;2023-04-25T00:15:19;3.70;;;0.40;;
49139;SDS011;34959;49.310;8.646;2023-04-25T00:17:45;1.13;;;0.52;;
49139;SDS011;34959;49.310;8.646;2023-04-25T00:20:11;2.72;;;0.55;;
49139;SDS011;34959;49.310;8.646;2023-04-25T00:22:36;1.65;;;0.50;;
49139;SDS011;34959;49.310;8.646;2023-04-25T00:25:05;0.82;;;0.30;;
49139;SDS011;34959;49.310;8.646;2023-04-25T00:27:31;0.70;;;0.50;;
49139;SDS011;34959;49.310;8.646;2023-04-25T00:29:57;1.30;;;0.40;;
49139;SDS011;34959;49.310;8.646;2023-04-25T00:32:22;1.42;;;0.50;;
49139;SDS011;34959;49.310;8.646;2023-04-25T00:34:48;1.00;;;0.50;;
49139;SDS011;34959;49.310;8.646;2023-04-25T00:37:13;1.33;;;0.77;;
49139;SDS011;34959;49.310;8.646;2023-04-25T00:39:39;2.15;;;0.60;;
49139;SDS011;34959;49.310;8.646;2023-04-25T00:42:04;2.17;;;0.50;;
49139;SDS011;34959;49.310;8.646;2023-04-25T00:44:30;1.50;;;0.50;;
49139;SDS011;34959;49.310;8.646;2023-04-25T00:46:57;2.15;;;0.55;;
49139;SDS011;34959;49.310;8.646;2023-04-25T00:49:23;1.38;;;0.60;;
49139;SDS011;34959;49.310;8.646;2023-04-25T00:51:48;1.05;;;0.60;;
49139;SDS011;34959;49.310;8.646;2023-04-25T00:54:14;1.02;;;0.40;;
49139;SDS011;34959;49.310;8.646;2023-04-25T00:56:40;1.27;;;0.50;;
49139;SDS011;34959;49.310;8.646;2023-04-25T00:59:06;2.92;;;0.60;;
49139;SDS011;34959;49.310;8.646;2023-04-25T01:01:32;1.63;;;0.50;;
49139;SDS011;34959;49.310;8.646;2023-04-25T01:03:58;2.67;;;0.60;;
49139;SDS011;34959;49.310;8.646;2023-04-25T01:06:24;1.10;;;0.40;;
49139;SDS011;34959;49.310;8.646;2023-04-25T01:08:49;0.50;;;0.50;;
49139;SDS011;34959;49.310;8.646;2023-04-25T01:11:16;0.77;;;0.43;;
49139;SDS011;34959;49.310;8.646;2023-04-25T01:13:41;0.60;;;0.35;;
49139;SDS011;34959;49.310;8.646;2023-04-25T01:16:07;1.65;;;0.60;;
49139;SDS011;34959;49.310;8.646;2023-04-25T01:18:32;3.33;;;0.80;;
49139;SDS011;34959;49.310;8.646;2023-04-25T01:21:06;0.70;;;0.50;;
49139;SDS011;34959;49.310;8.646;2023-04-25T01:23:35;1.70;;;0.57;;
49139;SDS011;34959;49.310;8.646;2023-04-25T01:26:01;1.05;;;0.63;;
49139;SDS011;34959;49.310;8.646;2023-04-25T01:28:27;1.42;;;0.40;;
49139;SDS011;34959;49.310;8.646;2023-04-25T01:30:53;2.08;;;0.50;;
49139;SDS011;34959;49.310;8.646;2023-04-25T01:33:19;1.20;;;0.50;;
49139;SDS011;34959;49.310;8.646;2023-04-25T01:35:46;1.13;;;0.50;;
49139;SDS011;34959;49.310;8.646;2023-04-25T01:38:12;1.67;;;0.50;;
49139;SDS011;34959;49.310;8.646;2023-04-25T01:40:38;1.58;;;0.52;;
49139;SDS011;34959;49.310;8.646;2023-04-25T01:43:06;1.52;;;0.50;;
49139;SDS011;34959;49.310;8.646;2023-04-25T01:45:33;1.00;;;0.50;;
49139;SDS011;34959;49.310;8.646;2023-04-25T01:47:59;1.08;;;0.50;;
49139;SDS011;34959;49.310;8.646;2023-04-25T01:50:24;1.77;;;0.50;;
49139;SDS011;34959;49.310;8.646;2023-04-25T01:52:50;0.90;;;0.60;;
49139;SDS011;34959;49.310;8.646;2023-04-25T01:55:15;3.47;;;0.70;;
49139;SDS011;34959;49.310;8.646;2023-04-25T01:57:41;1.55;;;0.40;;
49139;SDS011;34959;49.310;8.646;2023-04-25T02:00:07;0.60;;;0.47;;
49139;SDS011;34959;49.310;8.646;2023-04-25T02:02:34;1.40;;;0.60;;
49139;SDS011;34959;49.310;8.646;2023-04-25T02:05:00;1.45;;;0.40;;
49139;SDS011;34959;49.310;8.646;2023-04-25T02:07:26;2.95;;;0.63;;
49139;SDS011;34959;49.310;8.646;2023-04-25T02:09:51;1.63;;;0.55;;
49139;SDS011;34959;49.310;8.646;2023-04-25T02:12:17;0.70;;;0.50;;
49139;SDS011;34959;49.310;8.646;2023-04-25T02:14:42;0.70;;;0.40;;
49139;SDS011;34959;49.310;8.646;2023-04-25T02:17:07;2.17;;;0.40;;
49139;SDS011;34959;49.310;8.646;2023-04-25T02:19:33;0.95;;;0.40;;
49139;SDS011;34959;49.310;8.646;2023-04-25T02:21:58;0.77;;;0.60;;
49139;SDS011;34959;49.310;8.646;2023-04-25T02:24:24;2.35;;;0.60;;
49139;SDS011;34959;49.310;8.646;2023-04-25T02:26:50;1.25;;;0.75;;
49139;SDS011;34959;49.310;8.646;2023-04-25T02:29:15;2.05;;;0.50;;
49139;SDS011;34959;49.310;8.646;2023-04-25T02:31:41;0.73;;;0.50;;
49139;SDS011;34959;49.310;8.646;2023-04-25T02:34:07;0.57;;;0.40;;
49139;SDS011;34959;49.310;8.646;2023-04-25T02:36:32;1.63;;;0.50;;
49139;SDS011;34959;49.310;8.646;2023-04-25T02:38:59;1.25;;;0.50;;
49139;SDS011;34959;49.310;8.646;2023-04-25T02:41:25;1.27;;;0.50;;
49139;SDS011;34959;49.310;8.646;2023-04-25T02:43:51;0.93;;;0.47;;
49139;SDS011;34959;49.310;8.646;2023-04-25T02:46:16;0.63;;;0.45;;
49139;SDS011;34959;49.310;8.646;2023-04-25T02:48:42;1.48;;;0.45;;
49139;SDS011;34959;49.310;8.646;2023-04-25T02:51:07;1.00;;;0.50;;
49139;SDS011;34959;49.310;8.646;2023-04-25T02:53:33;1.00;;;0.60;;
49139;SDS011;34959;49.310;8.646;2023-04-25T02:55:58;1.13;;;0.65;;
49139;SDS011;34959;49.310;8.646;2023-04-25T02:58:24;0.88;;;0.50;;
49139;SDS011;34959;49.310;8.646;2023-04-25T03:00:49;0.77;;;0.47;;
49139;SDS011;34959;49.310;8.646;2023-04-25T03:03:15;1.55;;;0.52;;
49139;SDS011;34959;49.310;8.646;2023-04-25T03:05:43;1.70;;;0.40;;
49139;SDS011;34959;49.310;8.646;2023-04-25T03:08:08;1.02;;;0.60;;
49139;SDS011;34959;49.310;8.646;2023-04-25T03:10:34;1.98;;;0.52;;
49139;SDS011;34959;49.310;8.646;2023-04-25T03:12:59;2.03;;;0.55;;
49139;SDS011;34959;49.310;8.646;2023-04-25T03:15:25;0.80;;;0.50;;
49139;SDS011;34959;49.310;8.646;2023-04-25T03:17:50;0.65;;;0.50;;
49139;SDS011;34959;49.310;8.646;2023-04-25T03:20:16;0.50;;;0.40;;
49139;SDS011;34959;49.310;8.646;2023-04-25T03:22:41;0.63;;;0.40;;
49139;SDS011;34959;49.310;8.646;2023-04-25T03:25:07;1.20;;;0.55;;
49139;SDS011;34959;49.310;8.646;2023-04-25T03:27:33;0.65;;;0.40;;
49139;SDS011;34959;49.310;8.646;2023-04-25T03:29:58;0.55;;;0.50;;
49139;SDS011;34959;49.310;8.646;2023-04-25T03:32:23;0.80;;;0.60;;
49139;SDS011;34959;49.310;8.646;2023-04-25T03:34:49;1.13;;;0.47;;
49139;SDS011;34959;49.310;8.646;2023-04-25T03:37:15;2.17;;;0.50;;
49139;SDS011;34959;49.310;8.646;2023-04-25T03:39:41;1.10;;;0.40;;
49139;SDS011;34959;49.310;8.646;2023-04-25T03:42:06;0.80;;;0.40;;
49139;SDS011;34959;49.310;8.646;2023-04-25T03:44:31;1.70;;;0.50;;
49139;SDS011;34959;49.310;8.646;2023-04-25T03:46:57;2.10;;;0.60;;
49139;SDS011;34959;49.310;8.646;2023-04-25T03:49:22;0.98;;;0.55;;
49139;SDS011;34959;49.310;8.646;2023-04-25T03:51:48;1.20;;;0.60;;
49139;SDS011;34959;49.310;8.646;2023-04-25T03:54:13;1.13;;;0.65;;
49139;SDS011;34959;49.310;8.646;2023-04-25T03:56:38;1.30;;;0.60;;
49139;SDS011;34959;49.310;8.646;2023-04-25T03:59:04;1.33;;;0.60;;
49139;SDS011;34959;49.310;8.646;2023-04-25T04:01:29;0.90;;;0.47;;
49139;SDS011;34959;49.310;8.646;2023-04-25T04:03:55;0.90;;;0.45;;
49139;SDS011;34959;49.310;8.646;2023-04-25T04:06:20;0.80;;;0.47;;
49139;SDS011;34959;49.310;8.646;2023-04-25T04:08:46;3.05;;;0.60;;
49139;SDS011;34959;49.310;8.646;2023-04-25T04:11:11;1.15;;;0.47;;
49139;SDS011;34959;49.310;8.646;2023-04-25T04:13:37;0.93;;;0.50;;
49139;SDS011;34959;49.310;8.646;2023-04-25T04:16:02;1.75;;;0.68;;
49139;SDS011;34959;49.310;8.646;2023-04-25T04:18:29;0.50;;;0.40;;
49139;SDS011;34959;49.310;8.646;2023-04-25T04:20:54;0.60;;;0.40;;
49139;SDS011;34959;49.310;8.646;2023-04-25T04:23:20;0.88;;;0.60;;
49139;SDS011;34959;49.310;8.646;2023-04-25T04:25:47;0.47;;;0.40;;
49139;SDS011;34959;49.310;8.646;2023-04-25T04:28:13;1.52;;;0.40;;
49139;SDS011;34959;49.310;8.646;2023-04-25T04:30:38;2.72;;;0.40;;
49139;SDS011;34959;49.310;8.646;2023-04-25T04:33:04;0.90;;;0.70;;
49139;SDS011;34959;49.310;8.646;2023-04-25T04:35:30;1.48;;;0.52;;
49139;SDS011;34959;49.310;8.646;2023-04-25T04:37:55;0.90;;;0.52;;
49139;SDS011;34959;49.310;8.646;2023-04-25T04:40:21;0.50;;;0.40;;
49139;SDS011;34959;49.310;8.646;2023-04-25T04:42:46;1.17;;;0.40;;
49139;SDS011;34959;49.310;8.646;2023-04-25T04:45:12;1.88;;;0.40;;
49139;SDS011;34959;49.310;8.646;2023-04-25T04:47:38;0.50;;;0.40;;
49139;SDS011;34959;49.310;8.646;2023-04-25T04:50:07;1.10;;;0.70;;
49139;SDS011;34959;49.310;8.646;2023-04-25T04:52:34;5.85;;;0.50;;
49139;SDS011;34959;49.310;8.646;2023-04-25T04:55:01;2.97;;;0.68;;
49139;SDS011;34959;49.310;8.646;2023-04-25T04:57:28;1.75;;;0.80;;
49139;SDS011;34959;49.310;8.646;2023-04-25T04:59:53;0.80;;;0.50;;
49139;SDS011;34959;49.310;8.646;2023-04-25T05:02:19;0.52;;;0.40;;
49139;SDS011;34959;49.310;8.646;2023-04-25T05:04:45;0.88;;;0.50;;
49139;SDS011;34959;49.310;8.646;2023-04-25T05:07:10;1.05;;;0.65;;
49139;SDS011;34959;49.310;8.646;2023-04-25T05:09:36;1.02;;;0.60;;
49139;SDS011;34959;49.310;8.646;2023-04-25T05:12:01;1.15;;;0.50;;
49139;SDS011;34959;49.310;8.646;2023-04-25T05:14:28;0.50;;;0.50;;
49139;SDS011;34959;49.310;8.646;2023-04-25T05:16:54;0.88;;;0.45;;
49139;SDS011;34959;49.310;8.646;2023-04-25T05:19:20;1.40;;;0.50;;
49139;SDS011;34959;49.310;8.646;2023-04-25T05:21:45;1.83;;;0.40;;
49139;SDS011;34959;49.310;8.646;2023-04-25T05:24:11;1.20;;;0.60;;
49139;SDS011;34959;49.310;8.646;2023-04-25T05:26:37;0.85;;;0.50;;
49139;SDS011;34959;49.310;8.646;2023-04-25T05:29:02;0.50;;;0.47;;
49139;SDS011;34959;49.310;8.646;2023-04-25T05:31:28;0.88;;;0.45;;
49139;SDS011;34959;49.310;8.646;2023-04-25T05:33:53;1.75;;;0.50;;
49139;SDS011;34959;49.310;8.646;2023-04-25T05:36:19;2.90;;;0.60;;
49139;SDS011;34959;49.310;8.646;2023-04-25T05:38:44;0.40;;;0.40;;
49139;SDS011;34959;49.310;8.646;2023-04-25T05:41:10;0.55;;;0.40;;
49139;SDS011;34959;49.310;8.646;2023-04-25T05:43:35;1.30;;;0.60;;
49139;SDS011;34959;49.310;8.646;2023-04-25T05:46:01;1.42;;;0.40;;
49139;SDS011;34959;49.310;8.646;2023-04-25T05:48:26;0.50;;;0.40;;
49139;SDS011;34959;49.310;8.646;2023-04-25T05:50:52;1.00;;;0.40;;
49139;SDS011;34959;49.310;8.646;2023-04-25T05:53:18;1.40;;;0.80;;
49139;SDS011;34959;49.310;8.646;2023-04-25T05:55:44;0.60;;;0.50;;
49139;SDS011;34959;49.310;8.646;2023-04-25T05:58:09;0.60;;;0.50;;
49139;SDS011;34959;49.310;8.646;2023-04-25T06:00:35;1.80;;;0.50;;
49139;SDS011;34959;49.310;8.646;2023-04-25T06:03:00;1.55;;;0.40;;
49139;SDS011;34959;49.310;8.646;2023-04-25T06:05:26;1.20;;;0.40;;
49139;SDS011;34959;49.310;8.646;2023-04-25T06:07:51;0.60;;;0.50;;
49139;SDS011;34959;49.310;8.646;2023-04-25T06:10:16;1.20;;;0.50;;
49139;SDS011;34959;49.310;8.646;2023-04-25T06:12:42;1.42;;;0.68;;
49139;SDS011;34959;49.310;8.646;2023-04-25T06:15:07;0.82;;;0.40;;
49139;SDS011;34959;49.310;8.646;2023-04-25T06:17:33;0.70;;;0.70;;
49139;SDS011;34959;49.310;8.646;2023-04-25T06:19:59;0.88;;;0.40;;
49139;SDS011;34959;49.310;8.646;2023-04-25T06:22:24;0.45;;;0.45;;
49139;SDS011;34959;49.310;8.646;2023-04-25T06:24:50;1.80;;;0.40;;
49139;SDS011;34959;49.310;8.646;2023-04-25T06:27:15;1.38;;;0.43;;
49139;SDS011;34959;49.310;8.646;2023-04-25T06:29:41;0.52;;;0.40;;
49139;SDS011;34959;49.310;8.646;2023-04-25T06:32:07;1.17;;;0.70;;
49139;SDS011;34959;49.310;8.646;2023-04-25T06:34:33;1.10;;;0.50;;
49139;SDS011;34959;49.310;8.646;2023-04-25T06:36:58;2.05;;;0.50;;
49139;SDS011;34959;49.310;8.646;2023-04-25T06:39:23;1.50;;;0.70;;
49139;SDS011;34959;49.310;8.646;2023-04-25T06:41:50;1.25;;;0.63;;
49139;SDS011;34959;49.310;8.646;2023-04-25T06:44:15;1.33;;;0.50;;
49139;SDS011;34959;49.310;8.646;2023-04-25T06:46:41;0.75;;;0.52;;
49139;SDS011;34959;49.310;8.646;2023-04-25T06:49:06;3.05;;;0.60;;
49139;SDS011;34959;49.310;8.646;2023-04-25T06:51:32;1.52;;;0.70;;
49139;SDS011;34959;49.310;8.646;2023-04-25T06:53:57;0.60;;;0.50;;
49139;SDS011;34959;49.310;8.646;2023-04-25T06:56:23;1.25;;;0.55;;
49139;SDS011;34959;49.310;8.646;2023-04-25T06:58:48;1.25;;;0.60;;
49139;SDS011;34959;49.310;8.646;2023-04-25T07:01:14;2.50;;;0.77;;
49139;SDS011;34959;49.310;8.646;2023-04-25T07:03:39;1.90;;;0.90;;
49139;SDS011;34959;49.310;8.646;2023-04-25T07:06:05;0.75;;;0.60;;
49139;SDS011;34959;49.310;8.646;2023-04-25T07:08:31;2.90;;;0.70;;
49139;SDS011;34959;49.310;8.646;2023-04-25T07:10:56;2.30;;;0.90;;
49139;SDS011;34959;49.310;8.646;2023-04-25T07:13:21;2.08;;;0.68;;
49139;SDS011;34959;49.310;8.646;2023-04-25T07:15:47;2.25;;;0.50;;
49139;SDS011;34959;49.310;8.646;2023-04-25T07:18:13;1.40;;;0.80;;
49139;SDS011;34959;49.310;8.646;2023-04-25T07:20:39;0.95;;;0.50;;
49139;SDS011;34959;49.310;8.646;2023-04-25T07:23:04;1.85;;;0.57;;
49139;SDS011;34959;49.310;8.646;2023-04-25T07:25:30;1.67;;;0.70;;
49139;SDS011;34959;49.310;8.646;2023-04-25T07:27:55;1.42;;;0.75;;
49139;SDS011;34959;49.310;8.646;2023-04-25T07:30:21;1.23;;;0.63;;
49139;SDS011;34959;49.310;8.646;2023-04-25T07:32:47;1.55;;;0.50;;
49139;SDS011;34959;49.310;8.646;2023-04-25T07:35:13;1.10;;;0.77;;
49139;SDS011;34959;49.310;8.646;2023-04-25T07:37:39;1.40;;;0.68;;
49139;SDS011;34959;49.310;8.646;2023-04-25T07:40:04;1.00;;;0.60;;
49139;SDS011;34959;49.310;8.646;2023-04-25T07:42:30;2.53;;;0.70;;
49139;SDS011;34959;49.310;8.646;2023-04-25T07:47:24;2.08;;;0.80;;
49139;SDS011;34959;49.310;8.646;2023-04-25T07:49:50;2.38;;;0.70;;
49139;SDS011;34959;49.310;8.646;2023-04-25T07:52:16;1.75;;;0.60;;
49139;SDS011;34959;49.310;8.646;2023-04-25T07:54:41;1.63;;;0.93;;
49139;SDS011;34959;49.310;8.646;2023-04-25T07:57:06;2.22;;;0.60;;
49139;SDS011;34959;49.310;8.646;2023-04-25T07:59:32;1.90;;;0.73;;
49139;SDS011;34959;49.310;8.646;2023-04-25T08:01:57;2.50;;;0.70;;
49139;SDS011;34959;49.310;8.646;2023-04-25T08:04:23;2.38;;;1.08;;
49139;SDS011;34959;49.310;8.646;2023-04-25T08:06:49;1.20;;;0.73;;
49139;SDS011;34959;49.310;8.646;2023-04-25T08:09:15;2.38;;;0.60;;
49139;SDS011;34959;49.310;8.646;2023-04-25T08:11:41;1.52;;;0.70;;
49139;SDS011;34959;49.310;8.646;2023-04-25T08:14:06;2.47;;;0.77;;
49139;SDS011;34959;49.310;8.646;2023-04-25T08:16:32;1.58;;;0.88;;
49139;SDS011;34959;49.310;8.646;2023-04-25T08:18:58;3.50;;;0.82;;
49139;SDS011;34959;49.310;8.646;2023-04-25T08:21:24;1.05;;;0.80;;
49139;SDS011;34959;49.310;8.646;2023-04-25T08:23:52;1.10;;;0.80;;
49139;SDS011;34959;49.310;8.646;2023-04-25T08:26:17;17.27;;;3.60;;
49139;SDS011;34959;49.310;8.646;2023-04-25T08:28:42;9.57;;;3.70;;
49139;SDS011;34959;49.310;8.646;2023-04-25T08:31:08;9.00;;;4.03;;
49139;SDS011;34959;49.310;8.646;2023-04-25T08:33:33;12.88;;;3.35;;
49139;SDS011;34959;49.310;8.646;2023-04-25T08:35:59;7.93;;;3.17;;
49139;SDS011;34959;49.310;8.646;2023-04-25T08:38:24;6.65;;;2.03;;
49139;SDS011;34959;49.310;8.646;2023-04-25T08:40:50;4.75;;;1.90;;
49139;SDS011;34959;49.310;8.646;2023-04-25T08:43:19;4.38;;;2.20;;
49139;SDS011;34959;49.310;8.646;2023-04-25T08:45:45;6.05;;;2.30;;
49139;SDS011;34959;49.310;8.646;2023-04-25T08:48:14;8.25;;;1.65;;
49139;SDS011;34959;49.310;8.646;2023-04-25T08:50:45;3.75;;;1.73;;
49139;SDS011;34959;49.310;8.646;2023-04-25T08:53:15;8.20;;;1.88;;
49139;SDS011;34959;49.310;8.646;2023-04-25T08:55:43;3.60;;;1.38;;
49139;SDS011;34959;49.310;8.646;2023-04-25T08:58:09;5.50;;;1.50;;
49139;SDS011;34959;49.310;8.646;2023-04-25T09:00:36;4.00;;;1.73;;
49139;SDS011;34959;49.310;8.646;2023-04-25T09:03:01;4.38;;;1.58;;
49139;SDS011;34959;49.310;8.646;2023-04-25T09:05:28;4.80;;;1.92;;
49139;SDS011;34959;49.310;8.646;2023-04-25T09:07:54;4.90;;;1.73;;
49139;SDS011;34959;49.310;8.646;2023-04-25T09:10:19;4.95;;;1.60;;
49139;SDS011;34959;49.310;8.646;2023-04-25T09:12:45;5.18;;;1.60;;
49139;SDS011;34959;49.310;8.646;2023-04-25T09:15:27;3.75;;;1.42;;
49139;SDS011;34959;49.310;8.646;2023-04-25T09:17:56;3.50;;;1.50;;
49139;SDS011;34959;49.310;8.646;2023-04-25T09:20:22;4.55;;;1.80;;
49139;SDS011;34959;49.310;8.646;2023-04-25T09:22:47;2.78;;;1.05;;
49139;SDS011;34959;49.310;8.646;2023-04-25T09:25:13;3.30;;;1.38;;
49139;SDS011;34959;49.310;8.646;2023-04-25T09:27:51;2.75;;;1.23;;
49139;SDS011;34959;49.310;8.646;2023-04-25T09:30:18;5.88;;;1.40;;
49139;SDS011;34959;49.310;8.646;2023-04-25T09:32:43;2.95;;;1.42;;
49139;SDS011;34959;49.310;8.646;2023-04-25T09:35:10;2.95;;;1.30;;
49139;SDS011;34959;49.310;8.646;2023-04-25T09:37:36;3.35;;;1.20;;
49139;SDS011;34959;49.310;8.646;2023-04-25T09:40:04;3.25;;;1.30;;
49139;SDS011;34959;49.310;8.646;2023-04-25T09:42:31;2.60;;;1.30;;
49139;SDS011;34959;49.310;8.646;2023-04-25T09:44:57;2.38;;;1.33;;
49139;SDS011;34959;49.310;8.646;2023-04-25T09:47:24;3.55;;;1.40;;
49139;SDS011;34959;49.310;8.646;2023-04-25T09:49:50;3.05;;;1.40;;
49139;SDS011;34959;49.310;8.646;2023-04-25T09:52:20;2.63;;;1.40;;
49139;SDS011;34959;49.310;8.646;2023-04-25T09:54:47;3.30;;;1.23;;
49139;SDS011;34959;49.310;8.646;2023-04-25T09:57:15;4.22;;;1.30;;
49139;SDS011;34959;49.310;8.646;2023-04-25T09:59:45;2.95;;;1.52;;
49139;SDS011;34959;49.310;8.646;2023-04-25T10:02:13;3.72;;;1.73;;
49139;SDS011;34959;49.310;8.646;2023-04-25T10:04:39;3.33;;;1.48;;
49139;SDS011;34959;49.310;8.646;2023-04-25T10:07:06;2.50;;;1.40;;
49139;SDS011;34959;49.310;8.646;2023-04-25T10:09:32;4.18;;;1.60;;
49139;SDS011;34959;49.310;8.646;2023-04-25T10:11:59;3.15;;;1.30;;
49139;SDS011;34959;49.310;8.646;2023-04-25T10:14:25;3.35;;;1.60;;
49139;SDS011;34959;49.310;8.646;2023-04-25T10:16:51;3.10;;;1.40;;
49139;SDS011;34959;49.310;8.646;2023-04-25T10:19:20;2.08;;;1.23;;
49139;SDS011;34959;49.310;8.646;2023-04-25T10:21:48;3.13;;;1.20;;
49139;SDS011;34959;49.310;8.646;2023-04-25T10:24:16;3.72;;;1.40;;
49139;SDS011;34959;49.310;8.646;2023-04-25T10:26:42;5.85;;;1.40;;
49139;SDS011;34959;49.310;8.646;2023-04-25T10:29:08;2.97;;;1.42;;
49139;SDS011;34959;49.310;8.646;2023-04-25T10:31:34;4.32;;;1.52;;
49139;SDS011;34959;49.310;8.646;2023-04-25T10:34:11;3.00;;;1.35;;
49139;SDS011;34959;49.310;8.646;2023-04-25T10:36:36;4.05;;;1.20;;
49139;SDS011;34959;49.310;8.646;2023-04-25T10:39:06;3.05;;;1.40;;
49139;SDS011;34959;49.310;8.646;2023-04-25T10:41:44;4.57;;;1.27;;
49139;SDS011;34959;49.310;8.646;2023-04-25T10:44:11;2.50;;;1.42;;
49139;SDS011;34959;49.310;8.646;2023-04-25T10:46:36;2.97;;;1.20;;
49139;SDS011;34959;49.310;8.646;2023-04-25T10:49:02;2.97;;;1.30;;
49139;SDS011;34959;49.310;8.646;2023-04-25T10:51:29;3.45;;;1.40;;
49139;SDS011;34959;49.310;8.646;2023-04-25T10:53:59;3.80;;;1.52;;
49139;SDS011;34959;49.310;8.646;2023-04-25T10:59:02;4.32;;;1.70;;
49139;SDS011;34959;49.310;8.646;2023-04-25T11:01:47;2.70;;;1.40;;
49139;SDS011;34959;49.310;8.646;2023-04-25T11:04:22;2.83;;;1.48;;
49139;SDS011;34959;49.310;8.646;2023-04-25T11:09:16;2.30;;;1.27;;
49139;SDS011;34959;49.310;8.646;2023-04-25T11:11:42;3.47;;;1.60;;
49139;SDS011;34959;49.310;8.646;2023-04-25T11:14:07;4.05;;;1.50;;
49139;SDS011;34959;49.310;8.646;2023-04-25T11:16:33;3.15;;;1.40;;
49139;SDS011;34959;49.310;8.646;2023-04-25T11:18:58;4.05;;;1.38;;
49139;SDS011;34959;49.310;8.646;2023-04-25T11:21:27;2.67;;;1.30;;
49139;SDS011;34959;49.310;8.646;2023-04-25T11:23:53;2.53;;;1.42;;
49139;SDS011;34959;49.310;8.646;2023-04-25T11:26:19;6.22;;;1.95;;
49139;SDS011;34959;49.310;8.646;2023-04-25T11:28:45;3.22;;;1.58;;
49139;SDS011;34959;49.310;8.646;2023-04-25T11:31:12;4.32;;;1.67;;
49139;SDS011;34959;49.310;8.646;2023-04-25T11:33:37;4.55;;;1.83;;
49139;SDS011;34959;49.310;8.646;2023-04-25T11:36:03;2.95;;;1.40;;
49139;SDS011;34959;49.310;8.646;2023-04-25T11:38:28;4.65;;;1.58;;
49139;SDS011;34959;49.310;8.646;2023-04-25T11:40:54;3.70;;;1.50;;
49139;SDS011;34959;49.310;8.646;2023-04-25T11:43:20;3.95;;;1.77;;
49139;SDS011;34959;49.310;8.646;2023-04-25T11:45:47;3.58;;;1.50;;
49139;SDS011;34959;49.310;8.646;2023-04-25T11:48:13;7.03;;;1.70;;
49139;SDS011;34959;49.310;8.646;2023-04-25T11:50:39;3.72;;;1.67;;
49139;SDS011;34959;49.310;8.646;2023-04-25T11:53:05;2.78;;;1.40;;
49139;SDS011;34959;49.310;8.646;2023-04-25T11:55:31;4.57;;;1.88;;
49139;SDS011;34959;49.310;8.646;2023-04-25T11:57:59;2.78;;;1.60;;
49139;SDS011;34959;49.310;8.646;2023-04-25T12:00:25;2.97;;;1.45;;
49139;SDS011;34959;49.310;8.646;2023-04-25T12:02:55;4.80;;;1.88;;
49139;SDS011;34959;49.310;8.646;2023-04-25T12:05:27;3.63;;;1.38;;
49139;SDS011;34959;49.310;8.646;2023-04-25T12:07:54;4.97;;;1.75;;
49139;SDS011;34959;49.310;8.646;2023-04-25T12:10:19;3.97;;;1.48;;
49139;SDS011;34959;49.310;8.646;2023-04-25T12:12:46;3.38;;;1.17;;
49139;SDS011;34959;49.310;8.646;2023-04-25T12:15:15;2.78;;;1.20;;
49139;SDS011;34959;49.310;8.646;2023-04-25T12:17:49;3.47;;;1.65;;
49139;SDS011;34959;49.310;8.646;2023-04-25T12:20:17;2.83;;;1.40;;
49139;SDS011;34959;49.310;8.646;2023-04-25T12:22:48;3.90;;;1.50;;
49139;SDS011;34959;49.310;8.646;2023-04-25T12:28:17;2.88;;;1.33;;
49139;SDS011;34959;49.310;8.646;2023-04-25T12:30:52;3.53;;;1.42;;
49139;SDS011;34959;49.310;8.646;2023-04-25T12:33:21;4.28;;;1.40;;
49139;SDS011;34959;49.310;8.646;2023-04-25T12:35:47;3.63;;;1.40;;
49139;SDS011;34959;49.310;8.646;2023-04-25T12:38:22;4.38;;;1.30;;
49139;SDS011;34959;49.310;8.646;2023-04-25T12:40:51;3.70;;;1.30;;
49139;SDS011;34959;49.310;8.646;2023-04-25T12:43:17;3.88;;;1.23;;
49139;SDS011;34959;49.310;8.646;2023-04-25T12:45:43;4.13;;;1.60;;
49139;SDS011;34959;49.310;8.646;2023-04-25T12:48:09;4.10;;;1.40;;
49139;SDS011;34959;49.310;8.646;2023-04-25T12:50:35;3.13;;;1.33;;
49139;SDS011;34959;49.310;8.646;2023-04-25T12:53:00;3.53;;;1.40;;
49139;SDS011;34959;49.310;8.646;2023-04-25T12:55:26;5.47;;;1.42;;
49139;SDS011;34959;49.310;8.646;2023-04-25T12:57:51;4.90;;;1.30;;
49139;SDS011;34959;49.310;8.646;2023-04-25T13:00:17;4.40;;;1.25;;
49139;SDS011;34959;49.310;8.646;2023-04-25T13:02:44;2.88;;;1.30;;
49139;SDS011;34959;49.310;8.646;2023-04-25T13:05:11;2.20;;;1.25;;
49139;SDS011;34959;49.310;8.646;2023-04-25T13:07:36;2.95;;;1.30;;
49139;SDS011;34959;49.310;8.646;2023-04-25T13:10:02;2.58;;;1.35;;
49139;SDS011;34959;49.310;8.646;2023-04-25T13:12:28;2.80;;;1.35;;
49139;SDS011;34959;49.310;8.646;2023-04-25T13:14:53;2.63;;;1.13;;
49139;SDS011;34959;49.310;8.646;2023-04-25T13:17:19;3.38;;;1.30;;
49139;SDS011;34959;49.310;8.646;2023-04-25T13:19:44;4.13;;;1.20;;
49139;SDS011;34959;49.310;8.646;2023-04-25T13:22:10;2.80;;;1.30;;
49139;SDS011;34959;49.310;8.646;2023-04-25T13:24:36;6.10;;;1.17;;
49139;SDS011;34959;49.310;8.646;2023-04-25T13:27:01;3.90;;;1.33;;
49139;SDS011;34959;49.310;8.646;2023-04-25T13:29:26;4.13;;;1.20;;
49139;SDS011;34959;49.310;8.646;2023-04-25T13:31:52;1.88;;;1.05;;
49139;SDS011;34959;49.310;8.646;2023-04-25T13:34:17;1.83;;;0.95;;
49139;SDS011;34959;49.310;8.646;2023-04-25T13:36:43;3.45;;;1.20;;
49139;SDS011;34959;49.310;8.646;2023-04-25T13:39:08;2.05;;;0.90;;
49139;SDS011;34959;49.310;8.646;2023-04-25T13:41:33;3.17;;;1.38;;
49139;SDS011;34959;49.310;8.646;2023-04-25T13:43:59;3.05;;;1.45;;
49139;SDS011;34959;49.310;8.646;2023-04-25T13:46:26;1.92;;;1.20;;
49139;SDS011;34959;49.310;8.646;2023-04-25T13:48:51;2.97;;;1.40;;
49139;SDS011;34959;49.310;8.646;2023-04-25T13:51:17;5.45;;;2.83;;
49139;SDS011;34959;49.310;8.646;2023-04-25T13:53:43;3.30;;;1.70;;
49139;SDS011;34959;49.310;8.646;2023-04-25T13:56:08;4.53;;;1.67;;
49139;SDS011;34959;49.310;8.646;2023-04-25T13:58:35;6.00;;;2.00;;
49139;SDS011;34959;49.310;8.646;2023-04-25T14:01:01;4.97;;;1.55;;
49139;SDS011;34959;49.310;8.646;2023-04-25T14:03:26;3.95;;;1.23;;
49139;SDS011;34959;49.310;8.646;2023-04-25T14:05:52;5.07;;;1.33;;
49139;SDS011;34959;49.310;8.646;2023-04-25T14:08:17;4.68;;;1.27;;
49139;SDS011;34959;49.310;8.646;2023-04-25T14:10:42;4.78;;;1.45;;
49139;SDS011;34959;49.310;8.646;2023-04-25T14:13:08;4.57;;;1.80;;
49139;SDS011;34959;49.310;8.646;2023-04-25T14:15:34;6.32;;;1.67;;
49139;SDS011;34959;49.310;8.646;2023-04-25T14:17:59;8.45;;;1.52;;
49139;SDS011;34959;49.310;8.646;2023-04-25T14:20:25;4.32;;;1.15;;
49139;SDS011;34959;49.310;8.646;2023-04-25T14:22:51;2.13;;;1.30;;
49139;SDS011;34959;49.310;8.646;2023-04-25T14:25:18;6.25;;;1.50;;
49139;SDS011;34959;49.310;8.646;2023-04-25T14:27:44;4.43;;;1.52;;
49139;SDS011;34959;49.310;8.646;2023-04-25T14:30:14;3.08;;;1.35;;
49139;SDS011;34959;49.310;8.646;2023-04-25T14:32:40;4.13;;;1.30;;
49139;SDS011;34959;49.310;8.646;2023-04-25T14:35:05;5.15;;;1.75;;
49139;SDS011;34959;49.310;8.646;2023-04-25T14:37:32;4.43;;;1.60;;
49139;SDS011;34959;49.310;8.646;2023-04-25T14:39:57;2.10;;;1.30;;
49139;SDS011;34959;49.310;8.646;2023-04-25T14:42:23;3.38;;;1.20;;
49139;SDS011;34959;49.310;8.646;2023-04-25T14:44:48;3.72;;;1.20;;
49139;SDS011;34959;49.310;8.646;2023-04-25T14:47:14;3.45;;;1.50;;
49139;SDS011;34959;49.310;8.646;2023-04-25T14:49:43;3.83;;;1.20;;
49139;SDS011;34959;49.310;8.646;2023-04-25T14:52:09;3.05;;;1.00;;